sensor_id;sensor_type;location;lat;lon;timestamp;temperature;humidity
19214;DHT22;9741;51.020;5.304;2022-08-19T00:00:57;18.80;61.50
19214;DHT22;9741;51.020;5.304;2022-08-19T00:03:35;18.70;61.50
19214;DHT22;9741;51.020;5.304;2022-08-19T00:06:04;18.70;61.50
19214;DHT22;9741;51.020;5.304;2022-08-19T00:08:33;18.70;61.60
19214;DHT22;9741;51.020;5.304;2022-08-19T00:11:00;18.70;61.60
19214;DHT22;9741;51.020;5.304;2022-08-19T00:13:29;18.60;61.60
19214;DHT22;9741;51.020;5.304;2022-08-19T00:16:04;18.60;61.60
19214;DHT22;9741;51.020;5.304;2022-08-19T00:18:39;18.60;61.60
19214;DHT22;9741;51.020;5.304;2022-08-19T00:21:08;18.60;61.60
19214;DHT22;9741;51.020;5.304;2022-08-19T00:23:38;18.60;61.70
19214;DHT22;9741;51.020;5.304;2022-08-19T00:26:11;18.50;61.60
19214;DHT22;9741;51.020;5.304;2022-08-19T00:28:41;18.60;61.80
19214;DHT22;9741;51.020;5.304;2022-08-19T00:31:13;18.50;61.60
19214;DHT22;9741;51.020;5.304;2022-08-19T00:33:56;18.50;61.70
19214;DHT22;9741;51.020;5.304;2022-08-19T00:36:28;18.50;61.80
19214;DHT22;9741;51.020;5.304;2022-08-19T00:38:59;18.40;61.70
19214;DHT22;9741;51.020;5.304;2022-08-19T00:41:29;18.40;61.70
19214;DHT22;9741;51.020;5.304;2022-08-19T00:44:00;18.40;61.70
19214;DHT22;9741;51.020;5.304;2022-08-19T00:46:32;18.40;61.70
19214;DHT22;9741;51.020;5.304;2022-08-19T00:49:09;18.30;61.70
19214;DHT22;9741;51.020;5.304;2022-08-19T00:51:48;18.30;61.70
19214;DHT22;9741;51.020;5.304;2022-08-19T00:54:27;18.30;61.70
19214;DHT22;9741;51.020;5.304;2022-08-19T00:57:08;18.20;61.70
19214;DHT22;9741;51.020;5.304;2022-08-19T00:59:45;18.20;61.70
19214;DHT22;9741;51.020;5.304;2022-08-19T01:02:15;18.20;61.70
19214;DHT22;9741;51.020;5.304;2022-08-19T01:04:47;18.20;61.80
19214;DHT22;9741;51.020;5.304;2022-08-19T01:07:15;18.20;61.80
19214;DHT22;9741;51.020;5.304;2022-08-19T01:09:46;18.10;61.70
19214;DHT22;9741;51.020;5.304;2022-08-19T01:12:15;18.10;61.80
19214;DHT22;9741;51.020;5.304;2022-08-19T01:14:45;18.10;61.80
19214;DHT22;9741;51.020;5.304;2022-08-19T01:17:16;18.10;61.80
19214;DHT22;9741;51.020;5.304;2022-08-19T01:19:50;18.10;61.90
19214;DHT22;9741;51.020;5.304;2022-08-19T01:22:32;18.00;61.80
19214;DHT22;9741;51.020;5.304;2022-08-19T01:25:06;18.00;61.80
19214;DHT22;9741;51.020;5.304;2022-08-19T01:27:38;17.90;61.80
19214;DHT22;9741;51.020;5.304;2022-08-19T01:30:09;17.90;61.90
19214;DHT22;9741;51.020;5.304;2022-08-19T01:32:36;17.90;62.00
19214;DHT22;9741;51.020;5.304;2022-08-19T01:35:06;17.90;62.10
19214;DHT22;9741;51.020;5.304;2022-08-19T01:37:50;17.90;62.40
19214;DHT22;9741;51.020;5.304;2022-08-19T01:40:30;17.90;62.50
19214;DHT22;9741;51.020;5.304;2022-08-19T01:43:02;18.00;63.20
19214;DHT22;9741;51.020;5.304;2022-08-19T01:45:40;18.00;62.80
19214;DHT22;9741;51.020;5.304;2022-08-19T01:48:18;18.00;62.90
19214;DHT22;9741;51.020;5.304;2022-08-19T01:50:56;18.10;63.00
19214;DHT22;9741;51.020;5.304;2022-08-19T01:53:30;18.10;63.10
19214;DHT22;9741;51.020;5.304;2022-08-19T01:55:58;18.10;63.70
19214;DHT22;9741;51.020;5.304;2022-08-19T01:58:32;18.10;63.10
19214;DHT22;9741;51.020;5.304;2022-08-19T02:01:05;18.20;63.20
19214;DHT22;9741;51.020;5.304;2022-08-19T02:03:33;18.20;63.20
19214;DHT22;9741;51.020;5.304;2022-08-19T02:06:03;18.20;63.20
19214;DHT22;9741;51.020;5.304;2022-08-19T02:08:40;18.20;63.80
19214;DHT22;9741;51.020;5.304;2022-08-19T02:11:20;18.20;63.30
19214;DHT22;9741;51.020;5.304;2022-08-19T02:13:52;18.20;63.30
19214;DHT22;9741;51.020;5.304;2022-08-19T02:16:24;18.20;63.30
19214;DHT22;9741;51.020;5.304;2022-08-19T02:19:00;18.20;63.20
19214;DHT22;9741;51.020;5.304;2022-08-19T02:21:29;18.20;63.30
19214;DHT22;9741;51.020;5.304;2022-08-19T02:24:00;18.20;63.20
19214;DHT22;9741;51.020;5.304;2022-08-19T02:26:31;18.20;63.20
19214;DHT22;9741;51.020;5.304;2022-08-19T02:29:01;18.10;63.10
19214;DHT22;9741;51.020;5.304;2022-08-19T02:31:31;18.20;63.20
19214;DHT22;9741;51.020;5.304;2022-08-19T02:33:59;18.10;63.10
19214;DHT22;9741;51.020;5.304;2022-08-19T02:36:31;18.10;63.10
19214;DHT22;9741;51.020;5.304;2022-08-19T02:39:07;18.10;63.10
19214;DHT22;9741;51.020;5.304;2022-08-19T02:41:35;18.10;63.20
19214;DHT22;9741;51.020;5.304;2022-08-19T02:44:06;18.10;63.20
19214;DHT22;9741;51.020;5.304;2022-08-19T02:46:37;18.00;63.10
19214;DHT22;9741;51.020;5.304;2022-08-19T02:49:14;18.00;63.10
19214;DHT22;9741;51.020;5.304;2022-08-19T02:51:46;18.00;63.20
19214;DHT22;9741;51.020;5.304;2022-08-19T02:54:23;18.00;63.20
19214;DHT22;9741;51.020;5.304;2022-08-19T02:56:56;18.00;63.20
19214;DHT22;9741;51.020;5.304;2022-08-19T02:59:27;18.00;63.20
19214;DHT22;9741;51.020;5.304;2022-08-19T03:02:00;18.00;63.30
19214;DHT22;9741;51.020;5.304;2022-08-19T03:04:28;17.90;63.20
19214;DHT22;9741;51.020;5.304;2022-08-19T03:06:58;18.00;63.30
19214;DHT22;9741;51.020;5.304;2022-08-19T03:09:29;17.90;63.30
19214;DHT22;9741;51.020;5.304;2022-08-19T03:12:00;17.90;63.30
19214;DHT22;9741;51.020;5.304;2022-08-19T03:14:35;17.90;63.40
19214;DHT22;9741;51.020;5.304;2022-08-19T03:17:05;17.90;63.40
19214;DHT22;9741;51.020;5.304;2022-08-19T03:19:35;17.90;63.50
19214;DHT22;9741;51.020;5.304;2022-08-19T03:22:05;17.80;63.40
19214;DHT22;9741;51.020;5.304;2022-08-19T03:24:39;17.80;63.50
19214;DHT22;9741;51.020;5.304;2022-08-19T03:27:11;17.80;63.50
19214;DHT22;9741;51.020;5.304;2022-08-19T03:29:49;17.80;63.60
19214;DHT22;9741;51.020;5.304;2022-08-19T03:32:31;17.80;63.60
19214;DHT22;9741;51.020;5.304;2022-08-19T03:35:00;17.80;63.60
19214;DHT22;9741;51.020;5.304;2022-08-19T03:37:37;17.80;63.60
19214;DHT22;9741;51.020;5.304;2022-08-19T03:40:13;17.80;63.60
19214;DHT22;9741;51.020;5.304;2022-08-19T03:42:46;17.80;63.60
19214;DHT22;9741;51.020;5.304;2022-08-19T03:45:22;17.80;63.60
19214;DHT22;9741;51.020;5.304;2022-08-19T03:47:52;17.80;63.60
19214;DHT22;9741;51.020;5.304;2022-08-19T03:50:22;17.80;63.60
19214;DHT22;9741;51.020;5.304;2022-08-19T03:52:58;17.70;63.60
19214;DHT22;9741;51.020;5.304;2022-08-19T03:55:31;17.80;63.60
19214;DHT22;9741;51.020;5.304;2022-08-19T03:58:02;17.80;63.70
19214;DHT22;9741;51.020;5.304;2022-08-19T04:00:33;17.70;63.60
19214;DHT22;9741;51.020;5.304;2022-08-19T04:03:10;17.70;63.70
19214;DHT22;9741;51.020;5.304;2022-08-19T04:05:42;17.70;63.60
19214;DHT22;9741;51.020;5.304;2022-08-19T04:08:11;17.80;63.80
19214;DHT22;9741;51.020;5.304;2022-08-19T04:10:50;17.70;63.70
19214;DHT22;9741;51.020;5.304;2022-08-19T04:13:21;17.80;63.80
19214;DHT22;9741;51.020;5.304;2022-08-19T04:15:53;17.70;63.60
19214;DHT22;9741;51.020;5.304;2022-08-19T04:18:23;17.80;63.70
19214;DHT22;9741;51.020;5.304;2022-08-19T04:20:56;17.70;63.60
19214;DHT22;9741;51.020;5.304;2022-08-19T04:23:33;17.70;63.60
19214;DHT22;9741;51.020;5.304;2022-08-19T04:26:06;17.70;63.50
19214;DHT22;9741;51.020;5.304;2022-08-19T04:28:36;17.70;63.50
19214;DHT22;9741;51.020;5.304;2022-08-19T04:31:05;17.60;63.40
19214;DHT22;9741;51.020;5.304;2022-08-19T04:33:42;17.60;63.50
19214;DHT22;9741;51.020;5.304;2022-08-19T04:36:20;17.60;63.50
19214;DHT22;9741;51.020;5.304;2022-08-19T04:38:48;17.50;63.40
19214;DHT22;9741;51.020;5.304;2022-08-19T04:41:34;17.50;63.50
19214;DHT22;9741;51.020;5.304;2022-08-19T04:44:21;17.50;63.40
19214;DHT22;9741;51.020;5.304;2022-08-19T04:46:50;17.50;63.40
19214;DHT22;9741;51.020;5.304;2022-08-19T04:49:27;17.40;63.30
19214;DHT22;9741;51.020;5.304;2022-08-19T04:52:03;17.40;63.40
19214;DHT22;9741;51.020;5.304;2022-08-19T04:54:33;17.30;63.20
19214;DHT22;9741;51.020;5.304;2022-08-19T04:57:16;17.30;63.30
19214;DHT22;9741;51.020;5.304;2022-08-19T04:59:46;17.30;63.40
19214;DHT22;9741;51.020;5.304;2022-08-19T05:02:16;17.30;63.40
19214;DHT22;9741;51.020;5.304;2022-08-19T05:04:46;17.30;63.40
19214;DHT22;9741;51.020;5.304;2022-08-19T05:07:17;17.30;63.40
19214;DHT22;9741;51.020;5.304;2022-08-19T05:09:45;17.30;63.40
19214;DHT22;9741;51.020;5.304;2022-08-19T05:12:29;17.30;63.40
19214;DHT22;9741;51.020;5.304;2022-08-19T05:14:57;17.30;63.40
19214;DHT22;9741;51.020;5.304;2022-08-19T05:17:26;17.30;63.40
19214;DHT22;9741;51.020;5.304;2022-08-19T05:19:58;17.40;63.40
19214;DHT22;9741;51.020;5.304;2022-08-19T05:22:47;17.40;63.50
19214;DHT22;9741;51.020;5.304;2022-08-19T05:25:19;17.40;63.50
19214;DHT22;9741;51.020;5.304;2022-08-19T05:27:53;17.50;63.70
19214;DHT22;9741;51.020;5.304;2022-08-19T05:30:23;17.50;63.80
19214;DHT22;9741;51.020;5.304;2022-08-19T05:32:54;17.60;64.00
19214;DHT22;9741;51.020;5.304;2022-08-19T05:35:22;17.70;64.10
19214;DHT22;9741;51.020;5.304;2022-08-19T05:37:50;17.80;64.20
19214;DHT22;9741;51.020;5.304;2022-08-19T05:40:21;17.90;64.30
19214;DHT22;9741;51.020;5.304;2022-08-19T05:42:54;18.00;64.40
19214;DHT22;9741;51.020;5.304;2022-08-19T05:45:30;18.20;64.60
19214;DHT22;9741;51.020;5.304;2022-08-19T05:47:59;18.40;64.70
19214;DHT22;9741;51.020;5.304;2022-08-19T05:50:31;18.60;64.80
19214;DHT22;9741;51.020;5.304;2022-08-19T05:53:08;18.70;64.80
19214;DHT22;9741;51.020;5.304;2022-08-19T05:55:36;18.90;64.90
19214;DHT22;9741;51.020;5.304;2022-08-19T05:58:19;19.10;65.00
19214;DHT22;9741;51.020;5.304;2022-08-19T06:00:52;19.20;64.80
19214;DHT22;9741;51.020;5.304;2022-08-19T06:03:22;19.30;64.80
19214;DHT22;9741;51.020;5.304;2022-08-19T06:05:53;19.50;64.80
19214;DHT22;9741;51.020;5.304;2022-08-19T06:08:26;19.70;64.70
19214;DHT22;9741;51.020;5.304;2022-08-19T06:10:54;19.80;64.60
19214;DHT22;9741;51.020;5.304;2022-08-19T06:13:30;20.00;64.60
19214;DHT22;9741;51.020;5.304;2022-08-19T06:16:01;20.10;64.40
19214;DHT22;9741;51.020;5.304;2022-08-19T06:18:31;20.30;64.40
19214;DHT22;9741;51.020;5.304;2022-08-19T06:21:02;20.40;64.20
19214;DHT22;9741;51.020;5.304;2022-08-19T06:23:39;20.50;64.00
19214;DHT22;9741;51.020;5.304;2022-08-19T06:26:20;20.60;63.80
19214;DHT22;9741;51.020;5.304;2022-08-19T06:28:54;20.80;63.70
19214;DHT22;9741;51.020;5.304;2022-08-19T06:31:27;20.90;63.60
19214;DHT22;9741;51.020;5.304;2022-08-19T06:33:55;21.00;63.30
19214;DHT22;9741;51.020;5.304;2022-08-19T06:36:26;21.20;63.20
19214;DHT22;9741;51.020;5.304;2022-08-19T06:39:00;21.30;63.00
19214;DHT22;9741;51.020;5.304;2022-08-19T06:41:35;21.60;63.00
19214;DHT22;9741;51.020;5.304;2022-08-19T06:44:09;21.70;62.80
19214;DHT22;9741;51.020;5.304;2022-08-19T06:46:42;21.90;62.60
19214;DHT22;9741;51.020;5.304;2022-08-19T06:49:10;22.00;62.40
19214;DHT22;9741;51.020;5.304;2022-08-19T06:51:41;22.10;62.20
19214;DHT22;9741;51.020;5.304;2022-08-19T06:54:18;22.30;62.10
19214;DHT22;9741;51.020;5.304;2022-08-19T06:56:49;22.50;62.30
19214;DHT22;9741;51.020;5.304;2022-08-19T06:59:23;22.80;61.60
19214;DHT22;9741;51.020;5.304;2022-08-19T07:01:56;23.00;61.30
19214;DHT22;9741;51.020;5.304;2022-08-19T07:04:27;23.20;61.00
19214;DHT22;9741;51.020;5.304;2022-08-19T07:07:09;23.40;60.70
19214;DHT22;9741;51.020;5.304;2022-08-19T07:09:44;23.50;60.80
19214;DHT22;9741;51.020;5.304;2022-08-19T07:12:14;23.70;59.90
19214;DHT22;9741;51.020;5.304;2022-08-19T07:14:48;23.80;59.60
19214;DHT22;9741;51.020;5.304;2022-08-19T07:17:18;23.90;59.30
19214;DHT22;9741;51.020;5.304;2022-08-19T07:20:02;23.90;58.90
19214;DHT22;9741;51.020;5.304;2022-08-19T07:22:38;24.00;58.60
19214;DHT22;9741;51.020;5.304;2022-08-19T07:25:11;24.00;58.50
19214;DHT22;9741;51.020;5.304;2022-08-19T07:27:41;24.20;58.60
19214;DHT22;9741;51.020;5.304;2022-08-19T07:30:16;24.20;58.20
19214;DHT22;9741;51.020;5.304;2022-08-19T07:32:49;24.40;58.00
19214;DHT22;9741;51.020;5.304;2022-08-19T07:35:25;24.60;57.80
19214;DHT22;9741;51.020;5.304;2022-08-19T07:37:55;24.70;57.50
19214;DHT22;9741;51.020;5.304;2022-08-19T07:40:25;24.80;57.30
19214;DHT22;9741;51.020;5.304;2022-08-19T07:42:54;24.90;57.10
19214;DHT22;9741;51.020;5.304;2022-08-19T07:45:28;25.00;56.80
19214;DHT22;9741;51.020;5.304;2022-08-19T07:48:00;25.30;56.50
19214;DHT22;9741;51.020;5.304;2022-08-19T07:50:28;25.40;56.10
19214;DHT22;9741;51.020;5.304;2022-08-19T07:53:00;25.40;55.60
19214;DHT22;9741;51.020;5.304;2022-08-19T07:55:30;25.40;55.70
19214;DHT22;9741;51.020;5.304;2022-08-19T07:58:02;25.40;55.40
19214;DHT22;9741;51.020;5.304;2022-08-19T08:00:34;25.40;55.30
19214;DHT22;9741;51.020;5.304;2022-08-19T08:03:03;25.40;55.10
19214;DHT22;9741;51.020;5.304;2022-08-19T08:05:31;25.30;55.20
19214;DHT22;9741;51.020;5.304;2022-08-19T08:08:18;25.30;55.20
19214;DHT22;9741;51.020;5.304;2022-08-19T08:11:04;25.40;55.40
19214;DHT22;9741;51.020;5.304;2022-08-19T08:13:39;25.40;55.10
19214;DHT22;9741;51.020;5.304;2022-08-19T08:16:14;25.50;55.00
19214;DHT22;9741;51.020;5.304;2022-08-19T08:18:43;25.60;54.90
19214;DHT22;9741;51.020;5.304;2022-08-19T08:21:15;25.60;54.50
19214;DHT22;9741;51.020;5.304;2022-08-19T08:23:44;25.70;54.30
19214;DHT22;9741;51.020;5.304;2022-08-19T08:26:14;25.70;54.00
19214;DHT22;9741;51.020;5.304;2022-08-19T08:28:45;25.70;54.00
19214;DHT22;9741;51.020;5.304;2022-08-19T08:31:22;25.60;53.80
19214;DHT22;9741;51.020;5.304;2022-08-19T08:33:52;25.60;53.70
19214;DHT22;9741;51.020;5.304;2022-08-19T08:36:22;25.70;53.80
19214;DHT22;9741;51.020;5.304;2022-08-19T08:38:53;25.70;53.80
19214;DHT22;9741;51.020;5.304;2022-08-19T08:41:40;25.90;53.80
19214;DHT22;9741;51.020;5.304;2022-08-19T08:44:16;26.00;53.50
19214;DHT22;9741;51.020;5.304;2022-08-19T08:46:53;26.10;53.30
19214;DHT22;9741;51.020;5.304;2022-08-19T08:49:36;26.10;53.00
19214;DHT22;9741;51.020;5.304;2022-08-19T08:52:15;26.10;53.10
19214;DHT22;9741;51.020;5.304;2022-08-19T08:54:50;26.10;53.00
19214;DHT22;9741;51.020;5.304;2022-08-19T08:57:27;26.20;52.90
19214;DHT22;9741;51.020;5.304;2022-08-19T09:00:01;26.30;52.70
19214;DHT22;9741;51.020;5.304;2022-08-19T09:02:35;26.50;53.00
19214;DHT22;9741;51.020;5.304;2022-08-19T09:05:05;26.80;52.90
19214;DHT22;9741;51.020;5.304;2022-08-19T09:07:45;27.20;52.60
19214;DHT22;9741;51.020;5.304;2022-08-19T09:10:24;27.50;52.40
19214;DHT22;9741;51.020;5.304;2022-08-19T09:13:07;27.90;52.00
19214;DHT22;9741;51.020;5.304;2022-08-19T09:15:45;28.10;51.60
19214;DHT22;9741;51.020;5.304;2022-08-19T09:18:21;28.20;51.20
19214;DHT22;9741;51.020;5.304;2022-08-19T09:20:48;28.40;50.60
19214;DHT22;9741;51.020;5.304;2022-08-19T09:23:21;28.40;50.30
19214;DHT22;9741;51.020;5.304;2022-08-19T09:25:56;28.50;50.20
19214;DHT22;9741;51.020;5.304;2022-08-19T09:28:26;28.80;49.90
19214;DHT22;9741;51.020;5.304;2022-08-19T09:30:53;29.20;49.30
19214;DHT22;9741;51.020;5.304;2022-08-19T09:33:27;29.60;48.80
19214;DHT22;9741;51.020;5.304;2022-08-19T09:36:07;30.00;48.30
19214;DHT22;9741;51.020;5.304;2022-08-19T09:38:37;30.50;47.40
19214;DHT22;9741;51.020;5.304;2022-08-19T09:41:09;30.70;46.80
19214;DHT22;9741;51.020;5.304;2022-08-19T09:43:47;30.90;46.60
19214;DHT22;9741;51.020;5.304;2022-08-19T09:46:19;31.20;46.30
19214;DHT22;9741;51.020;5.304;2022-08-19T09:48:53;31.40;45.80
19214;DHT22;9741;51.020;5.304;2022-08-19T09:51:27;31.70;45.10
19214;DHT22;9741;51.020;5.304;2022-08-19T09:54:00;31.70;44.80
19214;DHT22;9741;51.020;5.304;2022-08-19T09:56:34;31.70;44.60
19214;DHT22;9741;51.020;5.304;2022-08-19T09:59:08;31.60;44.50
19214;DHT22;9741;51.020;5.304;2022-08-19T10:01:39;31.60;44.60
19214;DHT22;9741;51.020;5.304;2022-08-19T10:04:18;31.60;44.50
19214;DHT22;9741;51.020;5.304;2022-08-19T10:06:49;31.60;44.30
19214;DHT22;9741;51.020;5.304;2022-08-19T10:09:24;31.70;44.10
19214;DHT22;9741;51.020;5.304;2022-08-19T10:11:55;31.80;44.10
19214;DHT22;9741;51.020;5.304;2022-08-19T10:14:31;31.90;43.80
19214;DHT22;9741;51.020;5.304;2022-08-19T10:17:03;31.90;43.50
19214;DHT22;9741;51.020;5.304;2022-08-19T10:19:33;32.00;43.40
19214;DHT22;9741;51.020;5.304;2022-08-19T10:22:05;32.00;43.20
19214;DHT22;9741;51.020;5.304;2022-08-19T10:24:35;31.90;42.90
19214;DHT22;9741;51.020;5.304;2022-08-19T10:27:16;31.80;42.80
19214;DHT22;9741;51.020;5.304;2022-08-19T10:29:47;31.70;42.80
19214;DHT22;9741;51.020;5.304;2022-08-19T10:32:18;31.60;42.80
19214;DHT22;9741;51.020;5.304;2022-08-19T10:34:51;31.60;42.70
19214;DHT22;9741;51.020;5.304;2022-08-19T10:37:21;31.50;42.60
19214;DHT22;9741;51.020;5.304;2022-08-19T10:39:50;31.30;42.50
19214;DHT22;9741;51.020;5.304;2022-08-19T10:42:20;31.30;42.70
19214;DHT22;9741;51.020;5.304;2022-08-19T10:44:50;31.20;42.60
19214;DHT22;9741;51.020;5.304;2022-08-19T10:47:17;31.10;42.60
19214;DHT22;9741;51.020;5.304;2022-08-19T10:49:51;31.00;42.40
19214;DHT22;9741;51.020;5.304;2022-08-19T10:52:37;30.80;42.50
19214;DHT22;9741;51.020;5.304;2022-08-19T10:55:07;30.60;42.70
19214;DHT22;9741;51.020;5.304;2022-08-19T10:57:53;30.50;42.90
19214;DHT22;9741;51.020;5.304;2022-08-19T11:00:23;30.40;43.10
19214;DHT22;9741;51.020;5.304;2022-08-19T11:03:00;30.40;43.30
19214;DHT22;9741;51.020;5.304;2022-08-19T11:05:36;30.40;43.10
19214;DHT22;9741;51.020;5.304;2022-08-19T11:08:07;30.40;43.10
19214;DHT22;9741;51.020;5.304;2022-08-19T11:10:42;30.50;43.20
19214;DHT22;9741;51.020;5.304;2022-08-19T11:13:10;30.50;43.20
19214;DHT22;9741;51.020;5.304;2022-08-19T11:15:41;30.50;43.20
19214;DHT22;9741;51.020;5.304;2022-08-19T11:18:13;30.40;43.10
19214;DHT22;9741;51.020;5.304;2022-08-19T11:20:47;30.30;43.10
19214;DHT22;9741;51.020;5.304;2022-08-19T11:23:16;30.30;43.10
19214;DHT22;9741;51.020;5.304;2022-08-19T11:25:54;30.40;43.10
19214;DHT22;9741;51.020;5.304;2022-08-19T11:28:27;30.40;43.40
19214;DHT22;9741;51.020;5.304;2022-08-19T11:30:55;30.30;43.30
19214;DHT22;9741;51.020;5.304;2022-08-19T11:33:32;30.20;43.60
19214;DHT22;9741;51.020;5.304;2022-08-19T11:36:04;30.20;43.50
19214;DHT22;9741;51.020;5.304;2022-08-19T11:38:36;30.20;43.90
19214;DHT22;9741;51.020;5.304;2022-08-19T11:41:08;30.20;43.40
19214;DHT22;9741;51.020;5.304;2022-08-19T11:43:44;30.20;43.40
19214;DHT22;9741;51.020;5.304;2022-08-19T11:46:17;30.20;43.30
19214;DHT22;9741;51.020;5.304;2022-08-19T11:48:45;30.20;43.30
19214;DHT22;9741;51.020;5.304;2022-08-19T11:51:20;30.20;43.50
19214;DHT22;9741;51.020;5.304;2022-08-19T11:53:50;30.20;43.60
19214;DHT22;9741;51.020;5.304;2022-08-19T11:56:33;30.30;43.40
19214;DHT22;9741;51.020;5.304;2022-08-19T11:59:09;30.30;43.50
19214;DHT22;9741;51.020;5.304;2022-08-19T12:01:54;30.20;43.60
19214;DHT22;9741;51.020;5.304;2022-08-19T12:04:25;30.20;43.80
19214;DHT22;9741;51.020;5.304;2022-08-19T12:06:56;30.20;43.90
19214;DHT22;9741;51.020;5.304;2022-08-19T12:09:26;30.20;43.90
19214;DHT22;9741;51.020;5.304;2022-08-19T12:11:57;30.10;43.80
19214;DHT22;9741;51.020;5.304;2022-08-19T12:14:28;30.00;43.90
19214;DHT22;9741;51.020;5.304;2022-08-19T12:17:01;30.00;44.10
19214;DHT22;9741;51.020;5.304;2022-08-19T12:19:36;29.80;44.10
19214;DHT22;9741;51.020;5.304;2022-08-19T12:22:12;29.80;44.10
19214;DHT22;9741;51.020;5.304;2022-08-19T12:24:42;29.80;44.30
19214;DHT22;9741;51.020;5.304;2022-08-19T12:27:10;29.80;44.60
19214;DHT22;9741;51.020;5.304;2022-08-19T12:29:43;29.80;44.60
19214;DHT22;9741;51.020;5.304;2022-08-19T12:32:12;29.80;44.70
19214;DHT22;9741;51.020;5.304;2022-08-19T12:34:48;29.90;44.70
19214;DHT22;9741;51.020;5.304;2022-08-19T12:37:24;29.90;44.70
19214;DHT22;9741;51.020;5.304;2022-08-19T12:39:56;29.80;44.80
19214;DHT22;9741;51.020;5.304;2022-08-19T12:42:31;29.70;44.90
19214;DHT22;9741;51.020;5.304;2022-08-19T12:45:03;29.60;45.00
19214;DHT22;9741;51.020;5.304;2022-08-19T12:47:32;29.40;45.00
19214;DHT22;9741;51.020;5.304;2022-08-19T12:50:03;29.30;45.10
19214;DHT22;9741;51.020;5.304;2022-08-19T12:52:38;29.10;45.20
19214;DHT22;9741;51.020;5.304;2022-08-19T12:55:07;29.00;45.50
19214;DHT22;9741;51.020;5.304;2022-08-19T12:57:39;28.80;45.60
19214;DHT22;9741;51.020;5.304;2022-08-19T13:00:12;28.80;45.80
19214;DHT22;9741;51.020;5.304;2022-08-19T13:02:45;28.70;46.00
19214;DHT22;9741;51.020;5.304;2022-08-19T13:05:28;28.70;46.20
19214;DHT22;9741;51.020;5.304;2022-08-19T13:08:03;28.60;46.20
19214;DHT22;9741;51.020;5.304;2022-08-19T13:10:33;28.50;46.30
19214;DHT22;9741;51.020;5.304;2022-08-19T13:13:06;28.50;46.50
19214;DHT22;9741;51.020;5.304;2022-08-19T13:15:35;28.30;46.40
19214;DHT22;9741;51.020;5.304;2022-08-19T13:18:07;28.20;46.50
19214;DHT22;9741;51.020;5.304;2022-08-19T13:20:39;28.10;46.70
19214;DHT22;9741;51.020;5.304;2022-08-19T13:23:13;28.10;46.90
19214;DHT22;9741;51.020;5.304;2022-08-19T13:25:41;28.10;47.10
19214;DHT22;9741;51.020;5.304;2022-08-19T13:28:09;28.10;47.00
19214;DHT22;9741;51.020;5.304;2022-08-19T13:30:40;28.00;47.00
19214;DHT22;9741;51.020;5.304;2022-08-19T13:33:25;28.00;47.10
19214;DHT22;9741;51.020;5.304;2022-08-19T13:35:58;28.00;47.10
19214;DHT22;9741;51.020;5.304;2022-08-19T13:38:42;28.10;47.20
19214;DHT22;9741;51.020;5.304;2022-08-19T13:41:13;28.10;47.30
19214;DHT22;9741;51.020;5.304;2022-08-19T13:43:49;28.10;47.30
19214;DHT22;9741;51.020;5.304;2022-08-19T13:46:20;28.10;47.40
19214;DHT22;9741;51.020;5.304;2022-08-19T13:48:50;28.20;47.50
19214;DHT22;9741;51.020;5.304;2022-08-19T13:51:20;28.20;47.60
19214;DHT22;9741;51.020;5.304;2022-08-19T13:53:57;28.30;47.60
19214;DHT22;9741;51.020;5.304;2022-08-19T13:56:27;28.50;47.80
19214;DHT22;9741;51.020;5.304;2022-08-19T13:58:56;28.50;47.70
19214;DHT22;9741;51.020;5.304;2022-08-19T14:01:31;28.70;47.60
19214;DHT22;9741;51.020;5.304;2022-08-19T14:04:07;28.80;47.60
19214;DHT22;9741;51.020;5.304;2022-08-19T14:06:37;28.90;47.50
19214;DHT22;9741;51.020;5.304;2022-08-19T14:09:11;28.90;47.40
19214;DHT22;9741;51.020;5.304;2022-08-19T14:11:38;29.10;47.60
19214;DHT22;9741;51.020;5.304;2022-08-19T14:14:19;29.10;47.50
19214;DHT22;9741;51.020;5.304;2022-08-19T14:16:48;29.20;47.40
19214;DHT22;9741;51.020;5.304;2022-08-19T14:19:16;29.40;47.40
19214;DHT22;9741;51.020;5.304;2022-08-19T14:21:47;29.50;47.30
19214;DHT22;9741;51.020;5.304;2022-08-19T14:24:19;29.50;46.90
19214;DHT22;9741;51.020;5.304;2022-08-19T14:26:46;29.60;47.00
19214;DHT22;9741;51.020;5.304;2022-08-19T14:29:16;29.60;47.10
19214;DHT22;9741;51.020;5.304;2022-08-19T14:31:45;29.60;47.10
19214;DHT22;9741;51.020;5.304;2022-08-19T14:34:21;29.60;46.90
19214;DHT22;9741;51.020;5.304;2022-08-19T14:36:59;29.60;46.80
19214;DHT22;9741;51.020;5.304;2022-08-19T14:39:30;29.50;46.90
19214;DHT22;9741;51.020;5.304;2022-08-19T14:42:00;29.50;46.80
19214;DHT22;9741;51.020;5.304;2022-08-19T14:44:38;29.50;46.80
19214;DHT22;9741;51.020;5.304;2022-08-19T14:47:14;29.60;46.90
19214;DHT22;9741;51.020;5.304;2022-08-19T14:49:42;29.50;46.70
19214;DHT22;9741;51.020;5.304;2022-08-19T14:52:13;29.50;46.80
19214;DHT22;9741;51.020;5.304;2022-08-19T14:54:51;29.50;46.80
19214;DHT22;9741;51.020;5.304;2022-08-19T14:57:23;29.50;46.90
19214;DHT22;9741;51.020;5.304;2022-08-19T14:59:54;29.50;47.00
19214;DHT22;9741;51.020;5.304;2022-08-19T15:02:24;29.40;47.00
19214;DHT22;9741;51.020;5.304;2022-08-19T15:05:01;29.40;46.90
19214;DHT22;9741;51.020;5.304;2022-08-19T15:07:39;29.40;46.90
19214;DHT22;9741;51.020;5.304;2022-08-19T15:10:17;29.30;46.80
19214;DHT22;9741;51.020;5.304;2022-08-19T15:12:53;29.20;46.80
19214;DHT22;9741;51.020;5.304;2022-08-19T15:15:31;29.10;46.80
19214;DHT22;9741;51.020;5.304;2022-08-19T15:18:00;29.20;46.90
19214;DHT22;9741;51.020;5.304;2022-08-19T15:20:39;29.10;46.80
19214;DHT22;9741;51.020;5.304;2022-08-19T15:23:06;29.10;46.80
19214;DHT22;9741;51.020;5.304;2022-08-19T15:25:42;29.00;46.80
19214;DHT22;9741;51.020;5.304;2022-08-19T15:28:12;29.00;46.80
19214;DHT22;9741;51.020;5.304;2022-08-19T15:30:45;29.00;46.80
19214;DHT22;9741;51.020;5.304;2022-08-19T15:33:15;28.90;46.70
19214;DHT22;9741;51.020;5.304;2022-08-19T15:35:48;28.90;46.70
19214;DHT22;9741;51.020;5.304;2022-08-19T15:38:17;28.80;46.70
19214;DHT22;9741;51.020;5.304;2022-08-19T15:40:56;28.80;46.80
19214;DHT22;9741;51.020;5.304;2022-08-19T15:43:45;28.70;46.80
19214;DHT22;9741;51.020;5.304;2022-08-19T15:46:22;28.60;46.80
19214;DHT22;9741;51.020;5.304;2022-08-19T15:48:55;28.60;46.80
19214;DHT22;9741;51.020;5.304;2022-08-19T15:51:34;28.60;46.90
19214;DHT22;9741;51.020;5.304;2022-08-19T15:54:08;28.50;46.90
19214;DHT22;9741;51.020;5.304;2022-08-19T15:56:43;28.50;47.10
19214;DHT22;9741;51.020;5.304;2022-08-19T15:59:30;28.40;47.30
19214;DHT22;9741;51.020;5.304;2022-08-19T16:02:16;28.30;48.00
19214;DHT22;9741;51.020;5.304;2022-08-19T16:05:01;28.10;48.60
19214;DHT22;9741;51.020;5.304;2022-08-19T16:07:48;28.00;49.20
19214;DHT22;9741;51.020;5.304;2022-08-19T16:10:17;27.80;49.80
19214;DHT22;9741;51.020;5.304;2022-08-19T16:12:49;27.70;50.40
19214;DHT22;9741;51.020;5.304;2022-08-19T16:15:19;27.60;50.90
19214;DHT22;9741;51.020;5.304;2022-08-19T16:17:49;27.50;51.30
19214;DHT22;9741;51.020;5.304;2022-08-19T16:20:29;27.40;51.70
19214;DHT22;9741;51.020;5.304;2022-08-19T16:23:00;27.30;52.00